No particular awareness of the weather is required.    There are no Weather-warnings




My webcam more information My webcam


Meteosat more information Meteosat


Radar de pluja more information rain snow radar


Visita la nostra xarxa de llocs de meteo:

Template documentation
and downloads

And another site



Select another period ( hide this area )

Unitats Periode Custom range Directly to
Mètric Imperial Tant
Diari Setmana Mensual Anual
use both date-selectors for a custom range
previous Dia
With this date

WeatherUnderground graphs for this period ( click here )


Warning: Division by zero in /var/www/vhosts/5/103384/webspace/httpdocs/santgenismeteo.org/weather28/wu/WU-History4.php on line 835
Diari Resum Dilluns 25 Marc 2019
Temps Temp. ( °C ) Dew pt. ( °C ) Vent ( km/h ) des Rafegues ( km/h ) Pression baro ( hPa ) Humid.( % ) Rainrate ( cm ) Solar ( W/m2 )
Maxima22,6 4,7 17,7 Est ( 438/622 ) 17,7 1019,5 36 - 0
Media16,8 -0,6 3,6 Est #74/175 -31,0 1017,4 30 - 0 #0/175
Minima-17,8 -17,8 -   -1607,4 1014,4 0 -  
Diari Tabular details for Dilluns 25 Marc 2019
Temps Temp. ( °C ) Dew pt. ( °C ) Vent ( km/h ) des Rafegues ( km/h ) Pression baro ( hPa ) Humid.( % ) Rainrate ( cm ) Solar ( W/m2 )
00:02 16,4 -2,2 8,7 Est 16,3 1019,5 28 - -
00:07 16,5 -2,6 2,1 ESE 9,3 1019,5 27 - -
00:12 16,5 -2,6 4,7 Est 11,1 1019,5 27 - -
00:17 16,5 -2,6 3,2 Est 5,5 1019,5 27 - -
00:22 16,6 -2,5 1,4 Est 1,4 1019,5 27 - -
00:27 16,6 -2,5 1,4 Est 1,4 1018,5 27 - -
00:32 16,5 -2,6 12,2 Est 12,2 1018,5 27 - -
00:37 16,4 -2,7 12,2 Est 12,2 1018,5 27 - -
00:42 16,3 -2,7 12,2 Est 12,2 1018,5 27 - -
00:47 16,2 -2,8 13,0 Est 13,0 1018,5 27 - -
00:52 16,1 -2,9 4,3 West 4,3 1018,5 27 - -
00:57 16,1 -2,9 6,4 Est 6,4 1018,5 27 - -
01:02 16,0 -3,0 5,8 NE 11,6 1018,5 27 - -
01:07 16,1 -2,9 4,3 ENE 16,9 1018,5 27 - -
01:12 16,1 -2,9 5,5 Est 13,0 1018,5 27 - -
01:17 16,1 -2,9 9,0 Est 13,0 1018,5 27 - -
01:22 16,1 -2,9 6,4 West 9,0 1018,5 27 - -
01:27 16,1 -2,9 1,8 Est 1,8 1018,5 27 - -
01:32 16,1 -2,9 1,8 Est 1,8 1018,5 27 - -
01:37 16,1 -2,9 6,9 North 6,9 1018,5 27 - -
01:42 16,1 -2,9 4,0 WNW 8,7 1018,5 27 - -
01:47 16,1 -2,4 6,4 Est 6,4 1018,5 28 - -
01:52 16,1 -2,4 10,1 NW 10,1 1018,5 28 - -
01:57 16,1 -2,4 2,6 ENE 6,9 1018,5 28 - -
02:02 16,0 -2,5 5,5 NE 9,3 1018,5 28 - -
02:07 16,0 -2,5 2,1 WNW 12,2 1018,5 28 - -
02:12 16,0 -2,5 4,7 NE 6,1 1018,5 28 - -
02:17 16,0 -2,5 4,3 ESE 10,5 1018,5 28 - -
02:22 16,0 -2,0 1,8 NNW 6,9 1018,5 29 - -
02:27 16,1 -2,4 4,0 WNW 8,7 1018,5 28 - -
02:32 16,1 -2,4 3,2 ENE 6,1 1018,5 28 - -
02:37 16,2 -2,3 4,0 West 6,9 1018,5 28 - -
02:42 16,3 -2,3 14,0 Est 14,0 1018,5 28 - -
02:47 16,3 -2,3 6,9 ESE 12,2 1018,5 28 - -
02:52 16,3 -2,3 4,0 Est 12,2 1018,5 28 - -
02:57 16,3 -2,3 6,1 Est 6,1 1017,5 28 - -
03:02 16,3 -2,3 3,2 NE 7,9 1017,5 28 - -
03:07 16,3 -2,3 5,0 ENE 9,7 1017,5 28 - -
03:12 16,4 -2,2 1,8 West 15,4 1017,5 28 - -
03:17 16,4 -2,2 5,0 ENE 12,6 1017,5 28 - -
03:22 16,4 -2,2 7,6 NNE 9,0 1017,5 28 - -
03:27 16,4 -2,7 4,3 NW 10,5 1017,5 27 - -
03:32 16,4 -2,7 5,0 Est 9,7 1017,5 27 - -
03:37 16,4 -2,7 6,4 Est 7,9 1017,5 27 - -
03:42 16,4 -2,7 1,8 Est 9,7 1017,5 27 - -
03:47 16,4 -2,7 4,0 West 9,0 1017,5 27 - -
03:52 16,4 -2,7 8,7 Est 8,7 1017,5 27 - -
03:57 16,3 -2,7   calma 2,1 1017,5 27 - -
04:02 16,2 -2,8   calma   1017,5 27 - -
04:07 16,1 -2,9   calma   1017,5 27 - -
04:12 16,0 -2,5 2,6 Est 2,6 1016,5 28 - -
04:17 15,7 -2,8   calma   1016,5 28 - -
04:22 15,4 -2,6   calma   1016,5 29 - -
04:27 15,1 -2,4   calma 2,6 1016,5 30 - -
04:32 14,9 -2,5   calma 5,8 1016,5 30 - -
04:37 14,8 -2,2   calma 3,5 1016,5 31 - -
04:42 14,8 -2,2   calma   1016,5 31 - -
04:47 14,8 -2,2   calma 1,8 1016,5 31 - -
04:52 14,8 -2,2   calma 3,2 1016,5 31 - -
04:57 14,9 -2,1   calma 1,4 1016,5 31 - -
05:02 15,0 -2,4   calma 4,7 1016,5 30 - -
05:07 15,1 -2,4   calma 1,8 1016,5 30 - -
05:12 15,1 -2,4 2,1 WNW 4,3 1016,5 30 - -
05:17 15,2 -2,3   calma 5,5 1016,5 30 - -
05:22 15,2 -2,3 5,8 Est 7,6 1016,5 30 - -
05:27 15,2 -2,3   calma 4,7 1016,5 30 - -
05:32 15,2 -2,3   calma 2,6 1016,5 30 - -
05:37 15,1 -2,4 3,2 Est 5,0 1016,5 30 - -
05:42 15,1 -2,4 1,8 Est 4,3 1016,5 30 - -
05:47 15,0 -2,4 2,6 Est 4,3 1016,5 30 - -
05:52 14,9 -2,1   calma 6,9 1016,5 31 - -
05:57 14,7 -2,3 6,9 Est 6,9 1016,5 31 - -
06:02 14,6 -2,3   calma 5,0 1016,5 31 - -
06:07 14,4 -2,5 5,8 Est 5,8 1016,5 31 - -
06:12 14,3 -2,6   calma   1016,5 31 - -
06:17 14,2 -2,7 2,6 West 6,4 1016,5 31 - -
06:22 14,2 -2,7   calma 2,6 1016,5 31 - -
06:27 14,2 -2,3 1,8 Est 1,8 1016,5 32 - -
06:32 14,2 -2,3   calma   1016,5 32 - -
06:37 14,1 -2,4   calma   1016,5 32 - -
06:42 14,0 -2,9   calma   1017,5 31 - -
06:47 14,0 -2,9   calma -1607,4 1017,5 31 - -
06:52 13,8 -2,6   calma -1607,4 1017,5 32 - -
06:57 13,7 -2,7   calma 1,4 1017,5 32 - -
07:02 13,6 -2,4   calma   1017,5 33 - -
07:07 13,5 -2,5   calma   1017,5 33 - -
07:12 13,3 -1,8   calma 3,2 1017,5 35 - -
07:17 13,3 -1,8   calma   1017,5 35 - -
07:22 13,3 -1,8   calma   1017,5 35 - -
07:27 13,4 -1,8   calma   1017,5 35 - -
07:32 13,4 -1,8   calma   1017,5 35 - -
07:37 13,6 -1,6   calma   1017,5 35 - -
07:42 13,8 -1,0   calma   1017,5 36 - -
07:47 13,9 -1,3   calma   1017,5 35 - -
07:52 14,0 -1,2   calma   1017,5 35 - -
07:57 14,1 -1,1   calma   1017,5 35 - -
08:02 14,3 -0,6   calma   1017,5 36 - -
08:07 14,4 -0,5   calma   1017,5 36 - -
08:12 14,5 -0,4   calma   1017,5 36 - -
08:17 14,8 -0,1   calma   1017,5 36 - -
08:22 15,0 0,0   calma   1017,5 36 - -
08:27 15,2 -0,2 5,5 Est 6,4 1017,5 35 - -
08:32 15,3 -0,1 5,5 Est 12,2 1017,5 35 - -
08:37 15,4 0,0 4,0 Est 4,0 1017,5 35 - -
08:42 15,4 0,0 5,8 Est 7,6 1018,5 35 - -
08:47 15,5 0,1 7,6 Est 8,7 1018,5 35 - -
08:52 15,7 -0,1 2,1 Est 5,5 1018,5 34 - -
08:57 15,8 0,0 6,1 Est 6,1 1017,5 34 - -
09:02 16,0 0,1 6,1 Est 6,1 1017,5 34 - -
09:07 16,2 0,3 10,5 Est 10,5 1017,5 34 - -
09:12 16,2 0,3 7,9 Est 11,9 1017,5 34 - -
09:17 16,2 0,3 6,9 Est 6,9 1017,5 34 - -
09:22 16,3 0,4 7,9 Est 9,7 1017,5 34 - -
09:27 16,4 0,5 7,9 Est 7,9 1017,5 34 - -
09:32 16,5 0,6 7,9 Est 7,9 1017,5 34 - -
09:37 16,6 0,7 6,1 Est 16,6 1017,5 34 - -
09:42 16,6 0,7 13,0 ENE 13,0 1018,5 34 - -
09:47 16,6 0,7 10,1 Est 10,1 1018,5 34 - -
09:52 16,7 0,8 5,5 SE 5,5 1018,5 34 - -
09:57 16,8 0,8 17,7 Est 17,7 1017,5 34 - -
10:02 17,0 1,0 6,4 Est 9,3 1017,5 34 - -
10:07 17,1 0,7 10,5 Est 11,1 1017,5 33 - -
10:12 17,2 0,8 4,7 NE 13,7 1017,5 33 - -
10:17 17,4 1,0 9,7 Est 9,7 1017,5 33 - -
10:22 17,6 1,1   calma 11,9 1017,5 33 - -
10:27 17,7 1,2 5,0 West 6,9 1017,5 33 - -
10:32 17,9 1,4 9,7 Est 9,7 1017,5 33 - -
10:37 18,2 1,7 5,5 ESE 7,9 1017,5 33 - -
10:42 18,4 1,4 8,7 West 8,7 1017,5 32 - -
10:47 18,4 1,4 5,0 Est 5,0 1017,5 32 - -
10:52 18,5 1,5 1,8 WSW 1,8 1017,5 32 - -
10:57 18,6 1,6 6,1 Est 6,1 1018,5 32 - -
11:02 18,9 1,4 7,6 Est 7,6 1018,5 31 - -
11:07 19,2 1,2 1,4 WNW 8,7 1018,5 30 - -
11:12 19,3 1,3   calma 5,5 1017,5 30 - -
11:17 19,5 1,0 6,9 Est 6,9 1017,5 29 - -
11:22 19,6 1,1 4,0 Est 4,7 1017,5 29 - -
11:27 19,7 1,2 6,9 Est 6,9 1017,5 29 - -
11:32 19,9 1,8 6,9 Est 6,9 1017,5 30 - -
11:37 20,2 2,1   calma 5,5 1017,5 30 - -
11:42 20,5 2,3   calma 1,8 1016,5 30 - -
11:47 20,7 2,5 1,4 Est 1,8 1016,5 30 - -
11:52 20,9 2,7   calma 1,4 1016,5 30 - -
11:57 20,9 2,2   calma   1018,5 29 - -
12:02 21,1 2,4 1,8 ESE 1,8 1018,5 29 - -
12:07 21,3 2,5   calma   1018,5 29 - -
12:12 21,3 2,5 3,2 Est 3,2 1017,5 29 - -
12:17 21,6 2,8   calma   1017,5 29 - -
12:22 21,6 2,8   calma   1017,5 29 - -
12:27 21,6 2,8   calma -1607,4 1017,5 29 - -
12:32 -17,8 -17,8 1,4 Est -1607,4 1017,5 0 - -
12:37 21,9 3,5 1,8 Est 2,6 1017,5 30 - -
12:42 21,8 3,9 4,3 Est 4,3 1017,5 31 - -
12:47 21,9 4,5   calma 3,2 1017,5 32 - -
12:52 22,0 4,5   calma 3,2 1017,5 32 - -
12:57 21,9 4,5 5,8 SE 6,1 1016,5 32 - -
13:02 22,1 4,6 2,6 Est 2,6 1016,5 32 - -
13:07 22,1 4,6   calma 4,3 1016,5 32 - -
13:12 22,2 4,7   calma 2,1 1016,5 32 - -
13:17 22,2 3,3 2,1 Est 5,5 1016,5 29 - -
13:22 22,1 3,2 1,4 ENE 6,9 1016,5 29 - -
13:27 22,0 3,6   calma 6,4 1015,5 30 - -
13:32 21,8 3,5 4,7 Est 4,7 1015,5 30 - -
13:37 21,8 3,5 4,7 Est 5,8 1015,5 30 - -
13:42 21,8 3,5 1,8 ENE 2,6 1015,5 30 - -
13:47 21,8 3,9   calma 5,8 1015,5 31 - -
13:57 21,8 3,9 4,7 Est 4,7 1014,4 31 - -
14:02 21,7 3,8 4,7 Est 4,7 1014,4 31 - -
14:07 21,8 3,9 4,7 Est 4,7 1014,4 31 - -
14:12 21,7 4,3 6,4 Est 7,9 1015,5 32 - -
14:17 21,8 4,4   calma 5,0 1015,5 32 - -
14:22 21,9 4,5 9,0 SSE 9,0 1015,5 32 - -
14:27 22,0 4,1 1,4 Est 5,0 1015,5 31 - -
14:32 22,4 4,0 1,4 Est 6,9 1015,5 30 - -
14:37 22,6 4,1 6,4 Est 6,4 1015,5 30 - -
Diari Resum Dilluns 25 Marc 2019
Temps Temp. ( °C ) Dew pt. ( °C ) Vent ( km/h ) des Rafegues ( km/h ) Pression baro ( hPa ) Humid.( % ) Rainrate ( cm ) Solar ( W/m2 )
Maxima22,6 4,7 17,7 Est ( 438/622 ) 17,7 1019,5 36 - 0
Media16,8 -0,6 3,6 Est #74/175 -31,0 1017,4 30 - 0 #0/175
Minima-17,8 -17,8 -   -1607,4 1014,4 0 -  
Diari Tabular details for Dilluns 25 Marc 2019
Temps Temp. ( °C ) Dew pt. ( °C ) Vent ( km/h ) des Rafegues ( km/h ) Pression baro ( hPa ) Humid.( % ) Rainrate ( cm ) Solar ( W/m2 )
00:02 16,4 -2,2 8,7 Est 16,3 1019,5 28 - -
00:07 16,5 -2,6 2,1 ESE 9,3 1019,5 27 - -
00:12 16,5 -2,6 4,7 Est 11,1 1019,5 27 - -
00:17 16,5 -2,6 3,2 Est 5,5 1019,5 27 - -
00:22 16,6 -2,5 1,4 Est 1,4 1019,5 27 - -
00:27 16,6 -2,5 1,4 Est 1,4 1018,5 27 - -
00:32 16,5 -2,6 12,2 Est 12,2 1018,5 27 - -
00:37 16,4 -2,7 12,2 Est 12,2 1018,5 27 - -
00:42 16,3 -2,7 12,2 Est 12,2 1018,5 27 - -
00:47 16,2 -2,8 13,0 Est 13,0 1018,5 27 - -
00:52 16,1 -2,9 4,3 West 4,3 1018,5 27 - -
00:57 16,1 -2,9 6,4 Est 6,4 1018,5 27 - -
01:02 16,0 -3,0 5,8 NE 11,6 1018,5 27 - -
01:07 16,1 -2,9 4,3 ENE 16,9 1018,5 27 - -
01:12 16,1 -2,9 5,5 Est 13,0 1018,5 27 - -
01:17 16,1 -2,9 9,0 Est 13,0 1018,5 27 - -
01:22 16,1 -2,9 6,4 West 9,0 1018,5 27 - -
01:27 16,1 -2,9 1,8 Est 1,8 1018,5 27 - -
01:32 16,1 -2,9 1,8 Est 1,8 1018,5 27 - -
01:37 16,1 -2,9 6,9 North 6,9 1018,5 27 - -
01:42 16,1 -2,9 4,0 WNW 8,7 1018,5 27 - -
01:47 16,1 -2,4 6,4 Est 6,4 1018,5 28 - -
01:52 16,1 -2,4 10,1 NW 10,1 1018,5 28 - -
01:57 16,1 -2,4 2,6 ENE 6,9 1018,5 28 - -
02:02 16,0 -2,5 5,5 NE 9,3 1018,5 28 - -
02:07 16,0 -2,5 2,1 WNW 12,2 1018,5 28 - -
02:12 16,0 -2,5 4,7 NE 6,1 1018,5 28 - -
02:17 16,0 -2,5 4,3 ESE 10,5 1018,5 28 - -
02:22 16,0 -2,0 1,8 NNW 6,9 1018,5 29 - -
02:27 16,1 -2,4 4,0 WNW 8,7 1018,5 28 - -
02:32 16,1 -2,4 3,2 ENE 6,1 1018,5 28 - -
02:37 16,2 -2,3 4,0 West 6,9 1018,5 28 - -
02:42 16,3 -2,3 14,0 Est 14,0 1018,5 28 - -
02:47 16,3 -2,3 6,9 ESE 12,2 1018,5 28 - -
02:52 16,3 -2,3 4,0 Est 12,2 1018,5 28 - -
02:57 16,3 -2,3 6,1 Est 6,1 1017,5 28 - -
03:02 16,3 -2,3 3,2 NE 7,9 1017,5 28 - -
03:07 16,3 -2,3 5,0 ENE 9,7 1017,5 28 - -
03:12 16,4 -2,2 1,8 West 15,4 1017,5 28 - -
03:17 16,4 -2,2 5,0 ENE 12,6 1017,5 28 - -
03:22 16,4 -2,2 7,6 NNE 9,0 1017,5 28 - -
03:27 16,4 -2,7 4,3 NW 10,5 1017,5 27 - -
03:32 16,4 -2,7 5,0 Est 9,7 1017,5 27 - -
03:37 16,4 -2,7 6,4 Est 7,9 1017,5 27 - -
03:42 16,4 -2,7 1,8 Est 9,7 1017,5 27 - -
03:47 16,4 -2,7 4,0 West 9,0 1017,5 27 - -
03:52 16,4 -2,7 8,7 Est 8,7 1017,5 27 - -
03:57 16,3 -2,7   calma 2,1 1017,5 27 - -
04:02 16,2 -2,8   calma   1017,5 27 - -
04:07 16,1 -2,9   calma   1017,5 27 - -
04:12 16,0 -2,5 2,6 Est 2,6 1016,5 28 - -
04:17 15,7 -2,8   calma   1016,5 28 - -
04:22 15,4 -2,6   calma   1016,5 29 - -
04:27 15,1 -2,4   calma 2,6 1016,5 30 - -
04:32 14,9 -2,5   calma 5,8 1016,5 30 - -
04:37 14,8 -2,2   calma 3,5 1016,5 31 - -
04:42 14,8 -2,2   calma   1016,5 31 - -
04:47 14,8 -2,2   calma 1,8 1016,5 31 - -
04:52 14,8 -2,2   calma 3,2 1016,5 31 - -
04:57 14,9 -2,1   calma 1,4 1016,5 31 - -
05:02 15,0 -2,4   calma 4,7 1016,5 30 - -
05:07 15,1 -2,4   calma 1,8 1016,5 30 - -
05:12 15,1 -2,4 2,1 WNW 4,3 1016,5 30 - -
05:17 15,2 -2,3   calma 5,5 1016,5 30 - -
05:22 15,2 -2,3 5,8 Est 7,6 1016,5 30 - -
05:27 15,2 -2,3   calma 4,7 1016,5 30 - -
05:32 15,2 -2,3   calma 2,6 1016,5 30 - -
05:37 15,1 -2,4 3,2 Est 5,0 1016,5 30 - -
05:42 15,1 -2,4 1,8 Est 4,3 1016,5 30 - -
05:47 15,0 -2,4 2,6 Est 4,3 1016,5 30 - -
05:52 14,9 -2,1   calma 6,9 1016,5 31 - -
05:57 14,7 -2,3 6,9 Est 6,9 1016,5 31 - -
06:02 14,6 -2,3   calma 5,0 1016,5 31 - -
06:07 14,4 -2,5 5,8 Est 5,8 1016,5 31 - -
06:12 14,3 -2,6   calma   1016,5 31 - -
06:17 14,2 -2,7 2,6 West 6,4 1016,5 31 - -
06:22 14,2 -2,7   calma 2,6 1016,5 31 - -
06:27 14,2 -2,3 1,8 Est 1,8 1016,5 32 - -
06:32 14,2 -2,3   calma   1016,5 32 - -
06:37 14,1 -2,4   calma   1016,5 32 - -
06:42 14,0 -2,9   calma   1017,5 31 - -
06:47 14,0 -2,9   calma -1607,4 1017,5 31 - -
06:52 13,8 -2,6   calma -1607,4 1017,5 32 - -
06:57 13,7 -2,7   calma 1,4 1017,5 32 - -
07:02 13,6 -2,4   calma   1017,5 33 - -
07:07 13,5 -2,5   calma   1017,5 33 - -
07:12 13,3 -1,8   calma 3,2 1017,5 35 - -
07:17 13,3 -1,8   calma   1017,5 35 - -
07:22 13,3 -1,8   calma   1017,5 35 - -
07:27 13,4 -1,8   calma   1017,5 35 - -
07:32 13,4 -1,8   calma   1017,5 35 - -
07:37 13,6 -1,6   calma   1017,5 35 - -
07:42 13,8 -1,0   calma   1017,5 36 - -
07:47 13,9 -1,3   calma   1017,5 35 - -
07:52 14,0 -1,2   calma   1017,5 35 - -
07:57 14,1 -1,1   calma   1017,5 35 - -
08:02 14,3 -0,6   calma   1017,5 36 - -
08:07 14,4 -0,5   calma   1017,5 36 - -
08:12 14,5 -0,4   calma   1017,5 36 - -
08:17 14,8 -0,1   calma   1017,5 36 - -
08:22 15,0 0,0   calma   1017,5 36 - -
08:27 15,2 -0,2 5,5 Est 6,4 1017,5 35 - -
08:32 15,3 -0,1 5,5 Est 12,2 1017,5 35 - -
08:37 15,4 0,0 4,0 Est 4,0 1017,5 35 - -
08:42 15,4 0,0 5,8 Est 7,6 1018,5 35 - -
08:47 15,5 0,1 7,6 Est 8,7 1018,5 35 - -
08:52 15,7 -0,1 2,1 Est 5,5 1018,5 34 - -
08:57 15,8 0,0 6,1 Est 6,1 1017,5 34 - -
09:02 16,0 0,1 6,1 Est 6,1 1017,5 34 - -
09:07 16,2 0,3 10,5 Est 10,5 1017,5 34 - -
09:12 16,2 0,3 7,9 Est 11,9 1017,5 34 - -
09:17 16,2 0,3 6,9 Est 6,9 1017,5 34 - -
09:22 16,3 0,4 7,9 Est 9,7 1017,5 34 - -
09:27 16,4 0,5 7,9 Est 7,9 1017,5 34 - -
09:32 16,5 0,6 7,9 Est 7,9 1017,5 34 - -
09:37 16,6 0,7 6,1 Est 16,6 1017,5 34 - -
09:42 16,6 0,7 13,0 ENE 13,0 1018,5 34 - -
09:47 16,6 0,7 10,1 Est 10,1 1018,5 34 - -
09:52 16,7 0,8 5,5 SE 5,5 1018,5 34 - -
09:57 16,8 0,8 17,7 Est 17,7 1017,5 34 - -
10:02 17,0 1,0 6,4 Est 9,3 1017,5 34 - -
10:07 17,1 0,7 10,5 Est 11,1 1017,5 33 - -
10:12 17,2 0,8 4,7 NE 13,7 1017,5 33 - -
10:17 17,4 1,0 9,7 Est 9,7 1017,5 33 - -
10:22 17,6 1,1   calma 11,9 1017,5 33 - -
10:27 17,7 1,2 5,0 West 6,9 1017,5 33 - -
10:32 17,9 1,4 9,7 Est 9,7 1017,5 33 - -
10:37 18,2 1,7 5,5 ESE 7,9 1017,5 33 - -
10:42 18,4 1,4 8,7 West 8,7 1017,5 32 - -
10:47 18,4 1,4 5,0 Est 5,0 1017,5 32 - -
10:52 18,5 1,5 1,8 WSW 1,8 1017,5 32 - -
10:57 18,6 1,6 6,1 Est 6,1 1018,5 32 - -
11:02 18,9 1,4 7,6 Est 7,6 1018,5 31 - -
11:07 19,2 1,2 1,4 WNW 8,7 1018,5 30 - -
11:12 19,3 1,3   calma 5,5 1017,5 30 - -
11:17 19,5 1,0 6,9 Est 6,9 1017,5 29 - -
11:22 19,6 1,1 4,0 Est 4,7 1017,5 29 - -
11:27 19,7 1,2 6,9 Est 6,9 1017,5 29 - -
11:32 19,9 1,8 6,9 Est 6,9 1017,5 30 - -
11:37 20,2 2,1   calma 5,5 1017,5 30 - -
11:42 20,5 2,3   calma 1,8 1016,5 30 - -
11:47 20,7 2,5 1,4 Est 1,8 1016,5 30 - -
11:52 20,9 2,7   calma 1,4 1016,5 30 - -
11:57 20,9 2,2   calma   1018,5 29 - -
12:02 21,1 2,4 1,8 ESE 1,8 1018,5 29 - -
12:07 21,3 2,5   calma   1018,5 29 - -
12:12 21,3 2,5 3,2 Est 3,2 1017,5 29 - -
12:17 21,6 2,8   calma   1017,5 29 - -
12:22 21,6 2,8   calma   1017,5 29 - -
12:27 21,6 2,8   calma -1607,4 1017,5 29 - -
12:32 -17,8 -17,8 1,4 Est -1607,4 1017,5 0 - -
12:37 21,9 3,5 1,8 Est 2,6 1017,5 30 - -
12:42 21,8 3,9 4,3 Est 4,3 1017,5 31 - -
12:47 21,9 4,5   calma 3,2 1017,5 32 - -
12:52 22,0 4,5   calma 3,2 1017,5 32 - -
12:57 21,9 4,5 5,8 SE 6,1 1016,5 32 - -
13:02 22,1 4,6 2,6 Est 2,6 1016,5 32 - -
13:07 22,1 4,6   calma 4,3 1016,5 32 - -
13:12 22,2 4,7   calma 2,1 1016,5 32 - -
13:17 22,2 3,3 2,1 Est 5,5 1016,5 29 - -
13:22 22,1 3,2 1,4 ENE 6,9 1016,5 29 - -
13:27 22,0 3,6   calma 6,4 1015,5 30 - -
13:32 21,8 3,5 4,7 Est 4,7 1015,5 30 - -
13:37 21,8 3,5 4,7 Est 5,8 1015,5 30 - -
13:42 21,8 3,5 1,8 ENE 2,6 1015,5 30 - -
13:47 21,8 3,9   calma 5,8 1015,5 31 - -
13:57 21,8 3,9 4,7 Est 4,7 1014,4 31 - -
14:02 21,7 3,8 4,7 Est 4,7 1014,4 31 - -
14:07 21,8 3,9 4,7 Est 4,7 1014,4 31 - -
14:12 21,7 4,3 6,4 Est 7,9 1015,5 32 - -
14:17 21,8 4,4   calma 5,0 1015,5 32 - -
14:22 21,9 4,5 9,0 SSE 9,0 1015,5 32 - -
14:27 22,0 4,1 1,4 Est 5,0 1015,5 31 - -
14:32 22,4 4,0 1,4 Est 6,9 1015,5 30 - -
14:37 22,6 4,1 6,4 Est 6,4 1015,5 30 - -

Download your copy of this data-set  here

Our weather-data as stored at Weather Underground. Guio original per Jim McMurry. Adaptat per a la plantilla per Leuven-Template.eu

Trobareu la nostra informacio del temps tambe a:

European Weather Network

WeatherCloud

Weather Underground

Meteoclimatic

Equip utilitzat:

Weather-program
Weather Display

Weather-server
RaspberryPI 2

Proveidor

Weather Display

RaspberryPI 2